Time;durP1;ratioP1;P1;durP2;ratioP2;P2;SDS_P1;SDS_P2;PMS_P1;PMS_P2;Temp;Humidity;BMP_temperature;BMP_pressure;BME280_temperature;BME280_humidity;BME280_pressure;Samples;Min_cycle;Max_cycle;Signal;HPM_P1;HPM_P2
2022/03/05 00:00:15;;;;;;;3.33;2.90;;;0.80;89.20;;;;;;5053174;28;20256;-68
2022/03/05 00:02:41;;;;;;;2.60;2.40;;;0.80;89.40;;;;;;5053123;28;20193;-69
2022/03/05 00:05:07;;;;;;;3.10;2.80;;;0.70;89.50;;;;;;5034664;28;20590;-69
2022/03/05 00:07:32;;;;;;;5.93;3.73;;;0.70;89.70;;;;;;5053167;28;20502;-69
2022/03/05 00:09:58;;;;;;;7.33;3.30;;;0.60;90.10;;;;;;5035227;28;20432;-68
2022/03/05 00:12:23;;;;;;;2.97;2.43;;;0.60;90.10;;;;;;5052894;28;20712;-69
2022/03/05 00:14:49;;;;;;;1.93;1.83;;;0.60;90.20;;;;;;5052552;28;20193;-69
2022/03/05 00:17:15;;;;;;;3.43;3.13;;;0.50;90.40;;;;;;5053012;28;20170;-69
2022/03/05 00:19:40;;;;;;;5.30;3.30;;;0.50;90.40;;;;;;5052872;28;20173;-69
2022/03/05 00:22:06;;;;;;;6.00;3.97;;;0.50;90.40;;;;;;5035492;28;20199;-68
2022/03/05 00:24:32;;;;;;;9.10;3.30;;;0.50;90.20;;;;;;5052741;28;20181;-68
2022/03/05 00:26:57;;;;;;;4.00;3.70;;;0.40;90.40;;;;;;5053054;28;20166;-69
2022/03/05 00:29:24;;;;;;;6.53;4.07;;;0.40;90.80;;;;;;5052989;28;20169;-68
2022/03/05 00:31:50;;;;;;;3.63;2.05;;;0.40;91.00;;;;;;5052946;28;20401;-68
2022/03/05 00:34:16;;;;;;;9.18;3.00;;;0.30;91.20;;;;;;5052432;28;20193;-68
2022/03/05 00:36:42;;;;;;;5.13;3.27;;;0.30;91.40;;;;;;5052887;28;20200;-68
2022/03/05 00:39:08;;;;;;;3.87;2.73;;;0.30;91.50;;;;;;5055935;28;20757;-68
2022/03/05 00:41:33;;;;;;;4.53;3.77;;;0.30;91.50;;;;;;5056578;28;20179;-68
2022/03/05 00:43:59;;;;;;;5.07;2.90;;;0.30;91.50;;;;;;5056191;28;20193;-68
2022/03/05 00:46:26;;;;;;;3.50;3.20;;;0.20;91.80;;;;;;5056572;28;20194;-68
2022/03/05 00:48:52;;;;;;;5.18;3.25;;;0.20;92.10;;;;;;5056382;28;20255;-68
2022/03/05 00:51:18;;;;;;;2.80;2.55;;;0.20;92.30;;;;;;5056776;28;20170;-68
2022/03/05 00:53:44;;;;;;;2.23;1.93;;;0.10;92.60;;;;;;5056132;28;20176;-69
2022/03/05 00:56:10;;;;;;;9.60;3.50;;;0.10;92.80;;;;;;5056621;28;20430;-69
2022/03/05 00:58:35;;;;;;;3.83;3.53;;;0.20;93.00;;;;;;5056552;28;20235;-69
2022/03/05 01:01:01;;;;;;;3.83;2.00;;;0.30;93.00;;;;;;5056439;28;20252;-69
2022/03/05 01:03:27;;;;;;;4.38;3.58;;;0.30;92.80;;;;;;5055752;28;20201;-67
2022/03/05 01:05:53;;;;;;;4.03;1.93;;;0.40;92.80;;;;;;5056294;28;20551;-69
2022/03/05 01:08:19;;;;;;;3.67;3.47;;;0.40;92.50;;;;;;5056378;28;20189;-69
2022/03/05 01:10:45;;;;;;;6.40;4.63;;;0.40;92.10;;;;;;5038302;28;20213;-69
2022/03/05 01:13:11;;;;;;;4.57;3.20;;;0.40;92.00;;;;;;5055883;28;20419;-68
2022/03/05 01:15:36;;;;;;;2.53;2.33;;;0.30;92.20;;;;;;5056109;28;20197;-69
2022/03/05 01:18:02;;;;;;;2.40;2.30;;;0.20;92.30;;;;;;5056253;28;20264;-69
2022/03/05 01:20:28;;;;;;;3.37;3.07;;;0.10;92.50;;;;;;5056054;28;20186;-69
2022/03/05 01:22:53;;;;;;;3.33;3.13;;;0.00;92.80;;;;;;5055701;28;20201;-68
2022/03/05 01:25:19;;;;;;;4.03;3.50;;;0.00;93.10;;;;;;5055617;28;20549;-69
2022/03/05 01:27:45;;;;;;;4.67;3.03;;;0.00;93.20;;;;;;5055974;28;20651;-67
2022/03/05 01:30:11;;;;;;;4.37;3.20;;;-0.10;93.30;;;;;;5055796;28;20404;-69
2022/03/05 01:32:37;;;;;;;3.80;3.45;;;-0.10;93.40;;;;;;5055805;28;20396;-68
2022/03/05 01:35:04;;;;;;;4.67;4.37;;;-0.20;93.70;;;;;;5055347;28;20565;-68
2022/03/05 01:37:30;;;;;;;5.85;4.55;;;-0.30;94.70;;;;;;5055956;28;20165;-68
2022/03/05 01:39:56;;;;;;;4.72;3.20;;;-0.40;95.80;;;;;;5055896;28;20169;-67
2022/03/05 01:42:23;;;;;;;4.13;3.93;;;-0.50;97.20;;;;;;5056563;28;20217;-67
2022/03/05 01:44:49;;;;;;;4.18;3.78;;;-0.50;98.10;;;;;;5057660;28;20212;-68
2022/03/05 01:47:14;;;;;;;5.05;3.67;;;-0.50;98.30;;;;;;5058614;28;20193;-67
2022/03/05 01:49:40;;;;;;;7.53;4.57;;;-0.60;98.50;;;;;;5056954;28;20166;-69
2022/03/05 01:52:06;;;;;;;2.63;2.53;;;-0.60;98.80;;;;;;5058457;28;20168;-68
2022/03/05 01:54:32;;;;;;;4.20;3.77;;;-0.60;99.20;;;;;;5057436;28;20229;-68
2022/03/05 01:56:59;;;;;;;3.20;3.07;;;-0.70;99.00;;;;;;5038311;28;20450;-68
2022/03/05 01:59:25;;;;;;;2.90;2.38;;;-0.70;98.80;;;;;;5055302;28;20413;-70
2022/03/05 02:01:51;;;;;;;3.45;3.20;;;-0.80;99.10;;;;;;5037032;28;20237;-69
2022/03/05 02:04:17;;;;;;;4.57;4.18;;;-0.80;99.40;;;;;;5054594;28;20570;-68
2022/03/05 02:06:43;;;;;;;8.87;3.87;;;-0.80;99.60;;;;;;5055067;28;20249;-69
2022/03/05 02:09:09;;;;;;;2.63;2.42;;;-0.80;99.90;;;;;;5055194;28;20747;-68
2022/03/05 02:11:35;;;;;;;3.17;2.97;;;-0.90;99.90;;;;;;5055114;28;20181;-68
2022/03/05 02:14:01;;;;;;;3.20;3.00;;;-0.90;99.90;;;;;;5054524;28;20170;-68
2022/03/05 02:16:26;;;;;;;3.35;3.08;;;-0.90;99.90;;;;;;5055234;28;20483;-68
2022/03/05 02:19:04;;;;;;;3.53;3.03;;;-0.90;99.90;;;;;;5054981;28;20639;-69
2022/03/05 02:21:30;;;;;;;3.95;2.10;;;-1.00;99.90;;;;;;5036942;28;20641;-67
2022/03/05 02:23:56;;;;;;;4.28;3.83;;;-1.00;99.90;;;;;;5036451;28;20658;-67
2022/03/05 02:26:22;;;;;;;2.37;2.27;;;-1.00;99.90;;;;;;5054768;28;20201;-68
2022/03/05 02:28:49;;;;;;;2.92;2.72;;;-1.00;99.90;;;;;;5054608;28;20174;-70
2022/03/05 02:31:14;;;;;;;1.98;1.85;;;-1.00;99.90;;;;;;5036716;28;20294;-68
2022/03/05 02:33:41;;;;;;;3.20;2.97;;;-1.00;99.90;;;;;;5054209;28;20509;-68
2022/03/05 02:36:07;;;;;;;4.30;3.75;;;-1.00;99.90;;;;;;5036644;28;20619;-68
2022/03/05 02:38:36;;;;;;;6.10;4.90;;;-1.00;99.90;;;;;;5054585;28;20165;-68
2022/03/05 02:41:02;;;;;;;3.65;2.20;;;-1.00;99.90;;;;;;5054538;28;20193;-68
2022/03/05 02:43:28;;;;;;;4.25;1.90;;;-1.00;99.90;;;;;;5035946;28;20205;-67
2022/03/05 02:45:55;;;;;;;2.83;1.25;;;-1.00;99.90;;;;;;5054234;28;20193;-68
2022/03/05 02:48:21;;;;;;;3.25;2.15;;;-1.00;99.90;;;;;;5054113;28;20170;-68
2022/03/05 02:50:49;;;;;;;2.53;2.33;;;-1.00;99.90;;;;;;5036312;28;20173;-67
2022/03/05 02:53:15;;;;;;;7.88;4.13;;;-1.00;99.90;;;;;;5054027;28;20254;-70
2022/03/05 02:55:43;;;;;;;4.72;3.03;;;-1.00;99.90;;;;;;5053946;28;20263;-68
2022/03/05 02:58:09;;;;;;;5.85;2.92;;;-1.10;99.90;;;;;;5054054;28;20166;-68
2022/03/05 03:00:35;;;;;;;2.73;2.63;;;-1.10;99.90;;;;;;5053559;28;20196;-68
2022/03/05 03:03:02;;;;;;;3.10;2.80;;;-1.10;99.90;;;;;;5053839;28;20451;-68
2022/03/05 03:05:28;;;;;;;3.22;2.90;;;-1.10;99.90;;;;;;5053559;28;20682;-68
2022/03/05 03:07:53;;;;;;;2.60;2.40;;;-1.10;99.90;;;;;;5054112;28;20220;-68
2022/03/05 03:10:20;;;;;;;3.23;2.60;;;-1.10;99.90;;;;;;5054061;28;20445;-68
2022/03/05 03:12:48;;;;;;;4.15;3.00;;;-1.20;99.90;;;;;;5053949;28;20181;-68
2022/03/05 03:15:15;;;;;;;4.10;2.88;;;-1.20;99.90;;;;;;5053566;28;20280;-67
2022/03/05 03:17:43;;;;;;;4.97;4.57;;;-1.20;99.90;;;;;;5053801;28;20529;-68
2022/03/05 03:20:11;;;;;;;8.80;3.25;;;-1.30;99.90;;;;;;5053956;28;20190;-68
2022/03/05 03:22:37;;;;;;;2.60;2.40;;;-1.30;99.90;;;;;;5053637;28;20272;-68
2022/03/05 03:25:04;;;;;;;2.90;2.20;;;-1.30;99.90;;;;;;5053207;28;20189;-67
2022/03/05 03:27:30;;;;;;;6.57;2.80;;;-1.30;99.90;;;;;;5053736;28;20739;-68
2022/03/05 03:29:56;;;;;;;4.30;3.90;;;-1.40;99.90;;;;;;5035708;28;20253;-68
2022/03/05 03:32:21;;;;;;;2.10;1.77;;;-1.30;99.90;;;;;;5053536;28;20438;-67
2022/03/05 03:34:47;;;;;;;4.10;2.50;;;-1.40;99.90;;;;;;5053255;28;20181;-67
2022/03/05 03:37:12;;;;;;;2.37;2.27;;;-1.30;99.90;;;;;;5053573;28;20180;-69
2022/03/05 03:39:38;;;;;;;2.40;2.27;;;-1.30;99.90;;;;;;5053200;28;20176;-68
2022/03/05 03:42:04;;;;;;;7.30;5.80;;;-1.30;99.90;;;;;;5035442;28;20280;-68
2022/03/05 03:44:29;;;;;;;9.57;2.60;;;-1.30;99.90;;;;;;5053288;28;20181;-68
2022/03/05 03:46:56;;;;;;;2.40;1.70;;;-1.20;99.90;;;;;;5053507;28;20165;-68
2022/03/05 03:49:22;;;;;;;2.17;2.08;;;-1.20;99.90;;;;;;5035495;28;20543;-68
2022/03/05 03:51:48;;;;;;;3.00;2.80;;;-1.20;99.90;;;;;;5053456;28;20174;-68
2022/03/05 03:54:14;;;;;;;3.13;2.93;;;-1.30;99.90;;;;;;5052837;28;20184;-67
2022/03/05 03:56:40;;;;;;;3.17;2.88;;;-1.30;99.90;;;;;;5053245;28;20576;-68
2022/03/05 03:59:06;;;;;;;4.20;3.90;;;-1.30;99.90;;;;;;5035280;28;20166;-69
2022/03/05 04:01:31;;;;;;;2.97;2.77;;;-1.40;99.90;;;;;;5053219;28;20200;-68
2022/03/05 04:03:57;;;;;;;7.00;4.43;;;-1.30;99.90;;;;;;5052724;28;20917;-69
2022/03/05 04:06:23;;;;;;;6.10;4.23;;;-1.40;99.90;;;;;;5053206;28;20260;-68
2022/03/05 04:08:48;;;;;;;4.10;3.80;;;-1.40;99.90;;;;;;5053447;28;20252;-68
2022/03/05 04:11:18;;;;;;;3.97;1.80;;;-1.50;99.90;;;;;;5053088;28;20714;-68
2022/03/05 04:13:45;;;;;;;5.30;2.92;;;-1.40;99.90;;;;;;5055522;28;20171;-68
2022/03/05 04:16:11;;;;;;;2.67;2.47;;;-1.40;99.90;;;;;;5057069;28;20576;-66
2022/03/05 04:18:37;;;;;;;4.18;3.67;;;-1.50;99.90;;;;;;5057154;28;20158;-67
2022/03/05 04:21:04;;;;;;;3.43;3.23;;;-1.50;99.90;;;;;;5057016;28;20181;-67
2022/03/05 04:23:30;;;;;;;3.03;2.08;;;-1.60;99.90;;;;;;5056477;28;20197;-68
2022/03/05 04:25:56;;;;;;;3.67;2.97;;;-1.60;99.90;;;;;;5056935;28;20185;-68
2022/03/05 04:28:21;;;;;;;6.90;2.97;;;-1.70;99.90;;;;;;5057030;28;20538;-68
2022/03/05 04:30:47;;;;;;;4.87;2.90;;;-1.70;99.90;;;;;;5056915;28;20174;-68
2022/03/05 04:33:12;;;;;;;2.30;2.20;;;-1.70;99.90;;;;;;5056483;28;20606;-68
2022/03/05 04:35:38;;;;;;;3.67;2.77;;;-1.80;99.90;;;;;;5038895;28;20356;-68
2022/03/05 04:38:04;;;;;;;4.97;3.17;;;-1.90;99.90;;;;;;5056890;28;20260;-68
2022/03/05 04:40:30;;;;;;;4.75;4.35;;;-1.90;99.90;;;;;;5056621;28;20235;-68
2022/03/05 04:42:56;;;;;;;2.42;2.30;;;-1.90;99.90;;;;;;5056482;28;20197;-68
2022/03/05 04:45:22;;;;;;;2.57;2.10;;;-1.90;99.90;;;;;;5056346;28;20260;-67
2022/03/05 04:47:47;;;;;;;4.93;4.00;;;-2.00;99.90;;;;;;5056582;28;20619;-68
2022/03/05 04:50:13;;;;;;;2.67;2.57;;;-2.00;99.90;;;;;;5056497;28;20166;-67
2022/03/05 04:52:39;;;;;;;2.22;2.13;;;-2.00;99.90;;;;;;5056313;28;20231;-68
2022/03/05 04:55:07;;;;;;;4.20;2.70;;;-1.90;99.90;;;;;;5038141;28;20596;-67
2022/03/05 04:57:33;;;;;;;5.22;4.28;;;-1.90;99.90;;;;;;5056321;28;20253;-69
2022/03/05 04:59:58;;;;;;;12.00;4.67;;;-1.80;99.90;;;;;;5038485;28;20260;-67
2022/03/05 05:02:24;;;;;;;8.23;2.03;;;-1.80;99.90;;;;;;5056212;28;20448;-68
2022/03/05 05:04:53;;;;;;;2.00;1.90;;;-1.80;99.90;;;;;;5055652;28;20443;-68
2022/03/05 05:07:19;;;;;;;4.97;3.13;;;-1.80;99.90;;;;;;5056107;28;20437;-68
2022/03/05 05:09:44;;;;;;;2.03;1.90;;;-1.80;99.90;;;;;;5056195;28;20253;-69
2022/03/05 05:12:10;;;;;;;4.10;2.10;;;-1.80;99.90;;;;;;5056125;28;20647;-67
2022/03/05 05:14:36;;;;;;;4.40;3.77;;;-1.80;99.90;;;;;;5055639;28;20190;-67
2022/03/05 05:17:02;;;;;;;3.30;2.90;;;-1.80;99.90;;;;;;5056103;28;20259;-68
2022/03/05 05:19:28;;;;;;;2.60;2.28;;;-1.90;99.90;;;;;;5055792;28;20542;-66
2022/03/05 05:22:05;;;;;;;1.07;1.03;;;-1.90;99.90;;;;;;5055984;28;20667;-68
2022/03/05 05:24:33;;;;;;;3.42;3.13;;;-2.00;99.90;;;;;;5020847;28;20204;-67
2022/03/05 05:27:00;;;;;;;4.40;4.10;;;-2.00;99.90;;;;;;5055892;28;20173;-68
2022/03/05 05:29:26;;;;;;;5.18;3.53;;;-2.00;99.90;;;;;;5055631;28;20197;-66
2022/03/05 05:31:52;;;;;;;4.90;3.80;;;-2.00;99.90;;;;;;5037659;28;20266;-67
2022/03/05 05:34:18;;;;;;;4.75;3.00;;;-2.00;99.90;;;;;;5055197;28;20449;-68
2022/03/05 05:36:44;;;;;;;3.50;3.15;;;-1.90;99.90;;;;;;5055640;28;20197;-68
2022/03/05 05:39:11;;;;;;;2.93;2.60;;;-2.00;99.90;;;;;;5055599;28;20251;-67
2022/03/05 05:41:38;;;;;;;3.97;3.42;;;-2.00;99.90;;;;;;5055465;28;20223;-68
2022/03/05 05:44:05;;;;;;;4.00;3.70;;;-1.90;99.90;;;;;;5055076;28;20192;-68
2022/03/05 05:46:30;;;;;;;2.75;2.55;;;-1.90;99.90;;;;;;5055536;28;20174;-68
2022/03/05 05:48:56;;;;;;;7.23;1.70;;;-1.90;99.90;;;;;;5055467;28;20493;-68
2022/03/05 05:51:27;;;;;;;3.13;2.92;;;-1.80;99.90;;;;;;5055510;28;20244;-68
2022/03/05 05:53:52;;;;;;;4.25;2.72;;;-1.90;99.90;;;;;;5054919;28;20161;-67
2022/03/05 05:56:19;;;;;;;3.07;2.87;;;-1.80;99.90;;;;;;5055178;28;20169;-68
2022/03/05 05:58:45;;;;;;;3.42;3.20;;;-1.90;99.90;;;;;;5055268;28;20515;-68
2022/03/05 06:01:10;;;;;;;5.10;2.95;;;-1.80;99.90;;;;;;5055382;28;20200;-69
2022/03/05 06:03:37;;;;;;;2.17;1.93;;;-1.70;99.90;;;;;;5054590;28;20196;-69
2022/03/05 06:06:02;;;;;;;9.75;5.47;;;-1.70;99.90;;;;;;5054969;28;20212;-69
2022/03/05 06:08:28;;;;;;;3.13;2.23;;;-1.60;99.90;;;;;;5037173;28;20664;-68
2022/03/05 06:10:55;;;;;;;2.50;2.27;;;-1.60;99.90;;;;;;5037195;28;20420;-68
2022/03/05 06:13:21;;;;;;;3.08;2.08;;;-1.60;99.90;;;;;;5054718;28;20169;-68
2022/03/05 06:15:47;;;;;;;2.43;2.27;;;-1.50;99.90;;;;;;5054735;28;20193;-69
2022/03/05 06:18:13;;;;;;;7.83;5.13;;;-1.30;99.90;;;;;;5054932;28;20416;-68
2022/03/05 06:20:38;;;;;;;5.50;3.93;;;-1.10;99.90;;;;;;5054824;28;20270;-67
2022/03/05 06:23:04;;;;;;;4.67;3.60;;;-0.90;99.90;;;;;;5054273;28;20813;-67
2022/03/05 06:25:30;;;;;;;7.53;4.00;;;-0.80;99.90;;;;;;5054513;28;20190;-68
2022/03/05 06:27:56;;;;;;;9.93;4.83;;;-0.50;99.90;;;;;;5054738;28;20409;-68
2022/03/05 06:30:22;;;;;;;3.00;2.80;;;-0.30;99.90;;;;;;5054533;28;20432;-67
2022/03/05 06:32:47;;;;;;;9.68;3.97;;;-0.10;99.90;;;;;;5054387;28;20198;-68
2022/03/05 06:35:13;;;;;;;2.97;2.73;;;0.20;99.90;;;;;;5053451;28;20244;-68
2022/03/05 06:37:39;;;;;;;3.90;3.60;;;0.60;99.90;;;;;;5054531;28;20229;-68
2022/03/05 06:40:06;;;;;;;7.70;4.20;;;1.00;99.90;;;;;;5054500;28;20176;-68
2022/03/05 06:42:31;;;;;;;4.35;3.97;;;1.40;99.90;;;;;;5054203;28;20466;-67
2022/03/05 06:44:57;;;;;;;5.73;3.50;;;1.80;99.80;;;;;;5053865;28;20189;-68
2022/03/05 06:47:23;;;;;;;10.87;5.27;;;2.20;99.10;;;;;;5054251;28;20173;-68
2022/03/05 06:49:49;;;;;;;6.90;5.60;;;2.60;98.50;;;;;;5054266;28;20256;-68
2022/03/05 06:52:15;;;;;;;6.33;4.70;;;3.00;97.20;;;;;;5054132;28;20178;-67
2022/03/05 06:54:41;;;;;;;5.80;4.82;;;3.20;96.30;;;;;;5053800;28;20643;-69
2022/03/05 06:57:07;;;;;;;8.50;5.07;;;3.40;95.30;;;;;;5054181;28;20212;-68
2022/03/05 06:59:33;;;;;;;8.60;4.95;;;3.70;94.90;;;;;;5054070;28;20195;-68
2022/03/05 07:01:59;;;;;;;6.18;4.50;;;4.00;94.00;;;;;;5054030;28;20353;-69
2022/03/05 07:04:25;;;;;;;7.90;5.17;;;4.30;93.70;;;;;;5053525;28;20284;-69
2022/03/05 07:06:51;;;;;;;7.30;4.43;;;4.80;93.30;;;;;;5053840;28;20400;-70
2022/03/05 07:09:16;;;;;;;9.77;4.70;;;5.40;93.00;;;;;;5035796;28;20308;-69
2022/03/05 07:11:42;;;;;;;7.87;4.87;;;6.10;91.80;;;;;;5053870;28;20287;-69
2022/03/05 07:14:08;;;;;;;8.03;5.17;;;6.80;90.00;;;;;;5053483;28;20193;-69
2022/03/05 07:16:35;;;;;;;5.20;4.47;;;7.50;87.40;;;;;;5053632;28;20408;-69
2022/03/05 07:19:00;;;;;;;6.63;5.18;;;8.00;84.60;;;;;;5053652;28;20388;-68
2022/03/05 07:21:26;;;;;;;9.07;6.27;;;8.60;81.60;;;;;;5053681;28;20668;-68
2022/03/05 07:23:52;;;;;;;6.83;5.97;;;9.00;77.60;;;;;;5053107;28;20286;-70
2022/03/05 07:26:18;;;;;;;6.67;5.97;;;9.40;77.60;;;;;;5053566;28;20247;-70
2022/03/05 07:28:45;;;;;;;10.43;6.77;;;9.90;76.40;;;;;;5035450;28;20181;-69
2022/03/05 07:31:10;;;;;;;7.37;5.57;;;10.20;72.20;;;;;;5053715;28;20937;-70
2022/03/05 07:33:36;;;;;;;8.30;6.33;;;10.40;69.70;;;;;;5053002;28;20490;-68
2022/03/05 07:36:04;;;;;;;9.60;7.13;;;10.70;69.80;;;;;;5053342;28;20197;-70
2022/03/05 07:38:33;;;;;;;8.83;4.77;;;11.20;66.30;;;;;;5035524;28;20180;-70
2022/03/05 07:40:59;;;;;;;7.57;6.77;;;11.30;67.60;;;;;;5035298;28;20483;-70
2022/03/05 07:43:25;;;;;;;12.03;7.13;;;11.60;65.10;;;;;;5052802;28;20543;-69
2022/03/05 07:45:51;;;;;;;10.40;6.03;;;11.90;63.50;;;;;;5053042;28;20433;-69
2022/03/05 07:48:21;;;;;;;7.43;5.73;;;12.20;63.30;;;;;;5035008;28;20420;-69
2022/03/05 07:50:48;;;;;;;9.80;6.70;;;12.40;62.50;;;;;;5053277;28;20169;-69
2022/03/05 07:53:15;;;;;;;8.07;6.20;;;12.70;60.10;;;;;;5034927;28;20446;-69
2022/03/05 07:55:40;;;;;;;7.80;6.20;;;12.50;59.90;;;;;;5053142;28;20824;-69
2022/03/05 07:58:06;;;;;;;8.20;5.53;;;12.60;61.20;;;;;;5053039;28;20407;-69
2022/03/05 08:00:32;;;;;;;6.60;5.60;;;13.00;59.90;;;;;;5052991;28;20640;-68
2022/03/05 08:02:57;;;;;;;7.37;6.00;;;13.50;58.80;;;;;;5053042;28;20668;-69
2022/03/05 08:05:23;;;;;;;8.20;6.10;;;13.70;58.20;;;;;;5052717;28;20212;-68
2022/03/05 08:07:49;;;;;;;9.53;6.93;;;13.80;58.00;;;;;;5053172;28;20189;-68
2022/03/05 08:10:15;;;;;;;7.03;5.40;;;13.60;57.60;;;;;;5052994;28;20175;-69
2022/03/05 08:12:41;;;;;;;8.17;5.93;;;13.50;57.60;;;;;;5052884;28;20399;-68
2022/03/05 08:15:08;;;;;;;7.93;6.93;;;13.30;57.30;;;;;;5052598;28;20430;-69
2022/03/05 08:17:34;;;;;;;8.40;6.53;;;13.20;57.90;;;;;;5052930;28;20179;-69
2022/03/05 08:19:59;;;;;;;9.70;6.40;;;13.00;58.00;;;;;;5053111;28;20399;-69
2022/03/05 08:22:25;;;;;;;8.70;6.20;;;13.10;57.60;;;;;;5052869;28;20192;-69
2022/03/05 08:24:51;;;;;;;6.70;5.53;;;13.00;57.80;;;;;;5052308;28;20773;-68
2022/03/05 08:27:17;;;;;;;6.83;5.60;;;13.10;58.10;;;;;;5034839;28;20425;-69
2022/03/05 08:29:43;;;;;;;9.37;7.10;;;13.30;58.10;;;;;;5052676;28;20528;-69
2022/03/05 08:32:09;;;;;;;8.30;5.90;;;13.30;57.10;;;;;;5052859;28;20387;-70
2022/03/05 08:34:35;;;;;;;6.03;5.43;;;13.20;57.20;;;;;;5052280;28;20427;-69
2022/03/05 08:37:01;;;;;;;9.00;6.20;;;13.20;57.10;;;;;;5052898;28;20214;-69
2022/03/05 08:39:28;;;;;;;13.43;6.83;;;13.20;56.90;;;;;;5052588;28;20177;-70
2022/03/05 08:41:54;;;;;;;5.40;4.60;;;13.00;57.00;;;;;;5052555;28;20407;-70
2022/03/05 08:44:20;;;;;;;8.63;6.80;;;12.80;57.40;;;;;;5052289;28;20398;-69
2022/03/05 08:46:46;;;;;;;8.87;5.93;;;12.80;57.70;;;;;;5052629;28;20782;-69
2022/03/05 08:49:12;;;;;;;9.40;6.70;;;12.60;57.70;;;;;;5052768;28;20400;-69
2022/03/05 08:51:40;;;;;;;9.90;6.80;;;12.50;58.00;;;;;;5052693;28;20620;-68
2022/03/05 08:54:06;;;;;;;7.90;6.70;;;12.70;57.70;;;;;;5034259;28;20219;-68
2022/03/05 08:56:32;;;;;;;9.80;7.13;;;12.80;58.10;;;;;;5052457;28;20422;-68
2022/03/05 08:58:57;;;;;;;7.03;6.33;;;13.20;57.70;;;;;;5053646;28;20636;-68
2022/03/05 09:01:23;;;;;;;10.10;6.30;;;13.60;57.20;;;;;;5056152;28;20168;-68
2022/03/05 09:03:49;;;;;;;6.30;5.67;;;13.90;56.30;;;;;;5055626;28;20563;-69
2022/03/05 09:06:14;;;;;;;7.13;6.03;;;13.90;56.30;;;;;;5055894;28;20223;-69
2022/03/05 09:08:40;;;;;;;11.30;6.67;;;14.40;56.50;;;;;;5056154;28;20166;-70
2022/03/05 09:11:06;;;;;;;9.83;6.63;;;14.70;55.50;;;;;;5055906;28;20520;-70
2022/03/05 09:13:32;;;;;;;9.87;7.50;;;14.80;55.10;;;;;;5037798;28;20174;-70
2022/03/05 09:15:57;;;;;;;9.97;7.57;;;15.00;54.80;;;;;;5055955;28;20196;-71
2022/03/05 09:18:23;;;;;;;8.97;6.00;;;15.20;54.80;;;;;;5055945;28;20173;-68
2022/03/05 09:20:49;;;;;;;10.63;6.07;;;15.30;54.60;;;;;;5056011;28;20172;-70
2022/03/05 09:23:15;;;;;;;7.20;6.50;;;15.60;54.50;;;;;;5055328;28;20227;-69
2022/03/05 09:25:42;;;;;;;7.37;6.60;;;15.60;53.80;;;;;;5055706;28;20183;-70
2022/03/05 09:28:08;;;;;;;7.40;6.70;;;15.70;53.80;;;;;;5055837;28;20402;-68
2022/03/05 09:30:34;;;;;;;7.97;5.90;;;15.80;53.00;;;;;;5055934;28;20767;-68
2022/03/05 09:33:00;;;;;;;8.73;6.63;;;16.00;52.90;;;;;;5055356;28;20412;-69
2022/03/05 09:35:25;;;;;;;7.23;6.30;;;16.20;53.00;;;;;;5055191;28;20748;-69
2022/03/05 09:37:51;;;;;;;6.30;5.53;;;16.00;52.60;;;;;;5055487;28;20184;-69
2022/03/05 09:40:17;;;;;;;7.83;7.07;;;15.90;51.70;;;;;;5055180;28;20177;-69
2022/03/05 09:42:44;;;;;;;8.20;6.60;;;15.90;52.10;;;;;;5054905;28;20234;-72
2022/03/05 09:45:12;;;;;;;8.87;6.70;;;15.80;51.80;;;;;;5036970;28;20198;-69
2022/03/05 09:47:39;;;;;;;7.43;5.53;;;15.60;51.90;;;;;;5055338;28;20714;-68
2022/03/05 09:50:06;;;;;;;6.13;5.50;;;16.00;51.60;;;;;;5036969;28;20428;-69
2022/03/05 09:52:32;;;;;;;7.20;5.43;;;16.20;50.70;;;;;;5055569;28;20893;-69
2022/03/05 09:54:58;;;;;;;7.93;5.77;;;16.30;50.10;;;;;;5054654;28;20424;-70
2022/03/05 09:57:24;;;;;;;6.90;5.70;;;16.20;50.50;;;;;;5055146;28;20467;-69
2022/03/05 09:59:50;;;;;;;10.23;5.60;;;16.20;50.40;;;;;;5055087;28;20381;-69
2022/03/05 10:02:18;;;;;;;8.33;6.07;;;16.20;50.60;;;;;;5054903;28;20450;-68
2022/03/05 10:04:43;;;;;;;6.80;5.30;;;16.40;50.30;;;;;;5054431;28;20558;-68
2022/03/05 10:07:14;;;;;;;5.30;4.80;;;16.20;49.80;;;;;;5055178;28;20406;-68
2022/03/05 10:09:43;;;;;;;6.23;5.20;;;15.60;48.70;;;;;;5054331;28;20165;-69
2022/03/05 10:12:25;;;;;;;6.97;5.70;;;15.10;49.50;;;;;;5036483;28;20413;-69
2022/03/05 10:15:10;;;;;;;6.90;5.47;;;14.80;50.10;;;;;;5036517;28;20460;-68
2022/03/05 10:17:56;;;;;;;4.43;4.03;;;14.80;50.20;;;;;;5054618;28;20786;-68
2022/03/05 10:20:26;;;;;;;5.50;4.47;;;14.60;49.20;;;;;;5054811;28;20427;-68
2022/03/05 10:22:56;;;;;;;6.77;4.17;;;14.40;49.00;;;;;;5054491;28;20798;-69
2022/03/05 10:25:37;;;;;;;6.80;4.77;;;14.10;48.70;;;;;;5054124;28;20434;-69
2022/03/05 10:28:07;;;;;;;5.33;4.30;;;14.00;49.80;;;;;;5036727;28;20412;-67
2022/03/05 10:30:45;;;;;;;5.80;4.13;;;14.10;49.20;;;;;;5054478;28;20414;-68
2022/03/05 10:33:33;;;;;;;6.77;4.50;;;14.20;49.10;;;;;;5036414;28;20414;-68
2022/03/05 10:36:08;;;;;;;5.63;4.77;;;14.20;49.80;;;;;;5054459;28;20829;-69
2022/03/05 10:38:49;;;;;;;4.90;4.43;;;14.30;49.00;;;;;;5054169;28;20493;-68
2022/03/05 10:41:17;;;;;;;6.13;5.00;;;14.00;48.60;;;;;;5054380;28;20408;-68
2022/03/05 10:44:03;;;;;;;4.97;4.33;;;13.70;49.60;;;;;;5053963;28;20460;-68
2022/03/05 10:46:53;;;;;;;4.90;4.10;;;13.50;49.00;;;;;;5054388;28;20804;-68
2022/03/05 10:49:21;;;;;;;5.33;4.60;;;12.90;49.50;;;;;;5054096;28;20408;-69
2022/03/05 10:52:05;;;;;;;5.50;3.90;;;12.40;50.20;;;;;;5054200;28;20761;-67
2022/03/05 10:54:39;;;;;;;6.10;5.00;;;12.20;50.70;;;;;;5053677;28;20434;-68
2022/03/05 10:57:15;;;;;;;8.70;5.33;;;12.20;51.00;;;;;;5054142;28;20407;-68
2022/03/05 10:59:44;;;;;;;8.43;4.73;;;12.10;51.50;;;;;;5053836;28;20490;-68
2022/03/05 11:02:12;;;;;;;7.17;5.57;;;11.80;51.20;;;;;;5053870;28;20448;-68
2022/03/05 11:04:47;;;;;;;7.23;5.00;;;11.40;51.50;;;;;;5053425;28;20454;-68
2022/03/05 11:07:16;;;;;;;4.90;4.50;;;11.40;52.20;;;;;;5036020;28;20386;-69
2022/03/05 11:09:42;;;;;;;7.43;3.57;;;11.40;51.90;;;;;;5053960;28;20805;-69
2022/03/05 11:12:14;;;;;;;7.40;4.10;;;11.10;51.40;;;;;;5053661;28;20880;-69
2022/03/05 11:14:43;;;;;;;6.53;3.97;;;10.80;51.70;;;;;;5053561;28;20431;-68
2022/03/05 11:17:09;;;;;;;7.40;5.40;;;10.90;52.80;;;;;;5054058;28;20414;-69
2022/03/05 11:19:36;;;;;;;6.67;5.00;;;11.20;53.10;;;;;;5053474;28;20418;-69
2022/03/05 11:22:01;;;;;;;6.70;4.00;;;11.60;52.70;;;;;;5052931;28;20472;-69
2022/03/05 11:24:27;;;;;;;6.60;4.80;;;11.80;52.10;;;;;;5053016;28;20917;-68
2022/03/05 11:26:55;;;;;;;5.00;4.20;;;11.90;51.40;;;;;;5053555;28;20529;-68
2022/03/05 11:29:27;;;;;;;7.13;4.37;;;11.60;51.10;;;;;;5053615;28;20778;-69
2022/03/05 11:32:13;;;;;;;4.93;3.97;;;11.30;51.10;;;;;;5035829;28;20768;-68
2022/03/05 11:34:49;;;;;;;5.07;3.43;;;10.80;51.70;;;;;;5052967;28;20552;-69
2022/03/05 11:37:33;;;;;;;5.07;3.95;;;10.30;51.30;;;;;;5035475;28;20437;-68
2022/03/05 11:40:04;;;;;;;5.45;4.22;;;9.70;52.50;;;;;;5053257;28;20174;-67
2022/03/05 11:42:38;;;;;;;5.15;3.38;;;9.10;53.20;;;;;;5053401;28;20204;-69
2022/03/05 11:45:28;;;;;;;5.63;3.63;;;8.70;53.20;;;;;;5034966;28;20559;-69
2022/03/05 11:47:55;;;;;;;3.47;3.15;;;8.40;54.00;;;;;;5053336;28;20249;-69
2022/03/05 11:50:21;;;;;;;4.32;3.80;;;8.30;53.80;;;;;;5053337;28;20246;-67
2022/03/05 11:53:02;;;;;;;6.85;4.45;;;8.20;54.10;;;;;;5053327;28;20180;-68
2022/03/05 11:55:27;;;;;;;3.50;3.17;;;8.20;54.40;;;;;;5053106;28;20184;-68
2022/03/05 11:57:53;;;;;;;3.20;2.83;;;8.20;54.20;;;;;;5053201;28;20635;-68
2022/03/05 12:00:31;;;;;;;4.07;3.63;;;8.10;54.60;;;;;;5053270;28;20176;-69
2022/03/05 12:03:00;;;;;;;3.95;3.30;;;8.00;54.60;;;;;;5053160;28;20189;-67
2022/03/05 12:05:37;;;;;;;5.20;2.78;;;8.00;55.00;;;;;;5052617;28;20201;-71
2022/03/05 12:08:08;;;;;;;4.30;2.63;;;8.00;54.40;;;;;;5053171;28;20169;-69
2022/03/05 12:10:35;;;;;;;4.70;2.65;;;8.10;54.40;;;;;;5053368;28;20169;-67
2022/03/05 12:13:03;;;;;;;2.75;2.50;;;8.10;54.50;;;;;;5035224;28;20597;-67
2022/03/05 12:15:32;;;;;;;7.53;1.88;;;8.00;54.30;;;;;;5053123;28;20215;-67
2022/03/05 12:18:00;;;;;;;5.47;2.95;;;8.00;54.60;;;;;;5053086;28;20173;-71
2022/03/05 12:20:29;;;;;;;2.45;2.25;;;8.10;54.00;;;;;;5052941;28;20676;-68
2022/03/05 12:23:00;;;;;;;3.80;2.80;;;8.10;54.00;;;;;;5052820;28;20330;-68
2022/03/05 12:25:28;;;;;;;2.80;2.55;;;8.10;53.90;;;;;;5052787;28;20189;-68
2022/03/05 12:27:54;;;;;;;2.70;2.30;;;8.10;53.30;;;;;;5052931;28;20161;-67
2022/03/05 12:30:40;;;;;;;3.28;2.50;;;8.10;53.50;;;;;;5053098;28;20165;-69
2022/03/05 12:33:11;;;;;;;2.95;2.75;;;8.10;53.30;;;;;;5052449;28;20168;-67
2022/03/05 12:35:38;;;;;;;4.95;3.67;;;8.00;53.80;;;;;;5056794;28;20225;-67
2022/03/05 12:38:05;;;;;;;3.42;2.40;;;8.10;53.80;;;;;;5056593;28;20176;-67
2022/03/05 12:40:31;;;;;;;3.15;2.85;;;8.10;53.10;;;;;;5056858;28;20169;-68
2022/03/05 12:42:58;;;;;;;3.60;3.30;;;8.10;53.00;;;;;;5056570;28;20235;-68
2022/03/05 12:45:26;;;;;;;2.75;2.30;;;8.10;53.10;;;;;;5056248;28;20621;-69
2022/03/05 12:48:08;;;;;;;3.88;2.85;;;8.00;53.10;;;;;;5056481;28;20165;-68
2022/03/05 12:50:37;;;;;;;3.67;2.78;;;8.00;53.70;;;;;;5056576;28;20175;-68